createdAt,value
2022-10-24T00:01:21.475Z,99514.81
2022-10-24T00:06:19.189Z,99519.38
2022-10-24T00:11:20.070Z,99515.53
2022-10-24T00:16:16.395Z,99501.47
2022-10-24T00:21:13.326Z,99497.88
2022-10-24T00:26:11.398Z,99501.38
2022-10-24T00:31:13.467Z,99489.47
2022-10-24T00:36:14.886Z,99489.09
2022-10-24T00:41:15.997Z,99504.03
2022-10-24T00:46:13.943Z,99491.59
2022-10-24T00:51:32.522Z,99488.63
2022-10-24T00:56:32.312Z,99488.69
2022-10-24T01:01:28.845Z,99487.69
2022-10-24T01:06:53.822Z,99488.09
2022-10-24T01:12:03.043Z,99471.66
2022-10-24T01:17:25.528Z,99476.25
2022-10-24T01:22:32.882Z,99465.34
2022-10-24T01:27:44.723Z,99450.47
2022-10-24T01:33:11.299Z,99436.16
2022-10-24T01:38:31.068Z,99431.50
2022-10-24T01:43:33.448Z,99425.56
2022-10-24T01:48:35.069Z,99418.63
2022-10-24T01:53:31.503Z,99408.72
2022-10-24T01:58:27.940Z,99406.84
2022-10-24T02:03:30.792Z,99379.19
2022-10-24T02:08:34.704Z,99393.91
2022-10-24T02:14:18.609Z,99367.19
2022-10-24T02:19:16.024Z,99366.19
2022-10-24T02:24:18.728Z,99346.13
2022-10-24T02:29:25.206Z,99339.47
2022-10-24T02:34:23.859Z,99332.47
2022-10-24T02:39:21.210Z,99322.47
2022-10-24T02:44:19.147Z,99312.81
2022-10-24T02:49:15.573Z,99320.66
2022-10-24T02:54:12.487Z,99307.13
2022-10-24T03:04:06.279Z,99295.94
2022-10-24T03:09:02.751Z,99299.59
2022-10-24T03:13:59.090Z,99290.53
2022-10-24T03:18:55.822Z,99288.22
2022-10-24T03:23:52.342Z,99295.03
2022-10-24T03:28:48.687Z,99302.41
2022-10-24T03:33:45.026Z,99299.06
2022-10-24T03:38:41.428Z,99301.56
2022-10-24T03:43:37.778Z,99298.38
2022-10-24T03:48:34.157Z,99292.00
2022-10-24T03:53:30.507Z,99288.97
2022-10-24T03:58:27.087Z,99293.84
2022-10-24T04:03:23.459Z,99288.16
2022-10-24T04:08:20.240Z,99292.31
2022-10-24T04:13:16.619Z,99306.50
2022-10-24T04:18:13.020Z,99296.53
2022-10-24T04:23:09.466Z,99308.22
2022-10-24T04:28:05.854Z,99310.56
2022-10-24T04:33:02.249Z,99309.25
2022-10-24T04:37:58.647Z,99315.78
2022-10-24T04:42:55.577Z,99312.94
2022-10-24T04:47:52.049Z,99306.41
2022-10-24T04:52:48.390Z,99305.41
2022-10-24T04:57:44.882Z,99306.75
2022-10-24T05:02:41.667Z,99310.56
2022-10-24T05:07:38.332Z,99301.06
2022-10-24T05:12:34.716Z,99310.44
2022-10-24T05:17:31.283Z,99311.91
2022-10-24T05:22:27.684Z,99300.25
2022-10-24T05:27:26.897Z,99298.03
2022-10-24T05:32:24.014Z,99291.72
2022-10-24T05:37:20.439Z,99287.34
2022-10-24T05:42:17.577Z,99285.50
2022-10-24T05:47:14.178Z,99282.34
2022-10-24T05:52:10.600Z,99272.16
2022-10-24T05:57:07.072Z,99286.88
2022-10-24T06:02:03.717Z,99295.75
2022-10-24T06:07:00.148Z,99302.41
2022-10-24T06:11:56.501Z,99304.09
2022-10-24T06:16:52.859Z,99302.75
2022-10-24T06:21:49.272Z,99306.28
2022-10-24T06:26:45.755Z,99327.13
2022-10-24T06:31:42.101Z,99328.81
2022-10-24T06:36:38.454Z,99337.53
2022-10-24T06:41:34.804Z,99344.88
2022-10-24T06:46:31.215Z,99357.38
2022-10-24T06:51:27.641Z,99362.84
2022-10-24T06:56:24.089Z,99368.69
2022-10-24T07:01:23.405Z,99372.19
2022-10-24T07:11:25.874Z,99383.19
2022-10-24T07:16:22.673Z,99391.81
2022-10-24T07:21:22.445Z,99404.75
2022-10-24T07:26:20.499Z,99410.38
2022-10-24T07:31:17.226Z,99406.09
2022-10-24T07:36:22.190Z,99415.41
2022-10-24T07:41:18.825Z,99406.16
2022-10-24T07:46:17.072Z,99412.63
2022-10-24T07:51:14.789Z,99408.94
2022-10-24T07:56:15.865Z,99412.03
2022-10-24T08:01:20.067Z,99424.53
2022-10-24T08:06:19.107Z,99438.50
2022-10-24T08:11:18.549Z,99408.94
2022-10-24T08:16:17.157Z,99405.22
2022-10-24T08:21:15.692Z,99397.94
2022-10-24T08:26:14.847Z,99394.47
2022-10-24T08:31:16.602Z,99390.63
2022-10-24T08:36:30.297Z,99397.94
2022-10-24T08:41:26.665Z,99396.91
2022-10-24T08:46:28.621Z,99390.59
2022-10-24T08:51:37.554Z,99398.41
2022-10-24T08:56:34.221Z,99395.66
2022-10-24T09:01:44.025Z,99400.03
2022-10-24T09:06:40.892Z,99401.31
2022-10-24T09:11:55.308Z,99403.34
2022-10-24T09:16:57.907Z,99414.00
2022-10-24T09:21:56.917Z,99414.97
2022-10-24T09:26:53.369Z,99417.78
2022-10-24T09:31:49.899Z,99424.75
2022-10-24T09:36:46.431Z,99431.66
2022-10-24T09:41:46.566Z,99427.31
2022-10-24T09:46:45.839Z,99428.03
2022-10-24T09:52:04.446Z,99449.31
2022-10-24T10:02:46.020Z,99462.16
2022-10-24T10:07:48.328Z,99468.09
2022-10-24T10:12:54.678Z,99481.06
2022-10-24T10:17:53.178Z,99468.31
2022-10-24T10:22:49.526Z,99487.66
2022-10-24T10:27:51.070Z,99480.50
2022-10-24T10:33:00.138Z,99490.16
2022-10-24T10:38:09.734Z,99491.66
2022-10-24T10:43:24.993Z,99498.13
2022-10-24T10:48:42.190Z,99503.91
2022-10-24T10:53:50.787Z,99510.09
2022-10-24T10:59:07.859Z,99505.00
2022-10-24T11:04:19.158Z,99508.97
2022-10-24T11:09:33.044Z,99509.66
2022-10-24T11:14:39.587Z,99511.16
2022-10-24T11:19:54.185Z,99519.84
2022-10-24T11:25:01.398Z,99517.91
2022-10-24T11:30:13.225Z,99529.09
2022-10-24T11:35:29.439Z,99524.09
2022-10-24T11:45:56.256Z,99530.03
2022-10-24T11:50:59.415Z,99522.72
2022-10-24T11:56:06.090Z,99528.03
2022-10-24T12:01:24.042Z,99518.06
2022-10-24T12:06:42.654Z,99531.91
2022-10-24T12:12:01.116Z,99519.22
2022-10-24T12:17:06.207Z,99531.41
2022-10-24T12:22:05.011Z,99536.28
2022-10-24T12:27:31.508Z,99542.94
2022-10-24T12:32:39.587Z,99541.19
2022-10-24T12:37:36.337Z,99549.50
2022-10-24T12:42:32.587Z,99537.53
2022-10-24T12:47:30.805Z,99552.31
2022-10-24T12:52:30.213Z,99555.59
2022-10-24T12:57:31.920Z,99545.03
2022-10-24T13:02:52.778Z,99541.97
2022-10-24T13:08:08.045Z,99540.81
2022-10-24T13:13:26.244Z,99534.16
2022-10-24T13:18:36.278Z,99535.56
2022-10-24T13:23:33.253Z,99523.72
2022-10-24T13:28:35.919Z,99535.63
2022-10-24T13:33:32.597Z,99541.06
2022-10-24T13:38:29.538Z,99566.09
2022-10-24T13:43:26.473Z,99542.84
2022-10-24T13:48:33.075Z,99542.00
2022-10-24T13:53:41.875Z,99551.41
2022-10-24T13:58:44.206Z,99539.59
2022-10-24T14:03:43.391Z,99540.69
2022-10-24T14:09:00.846Z,99550.25
2022-10-24T14:14:04.247Z,99550.16
2022-10-24T14:19:32.548Z,99544.75
2022-10-24T14:24:30.665Z,99549.19
2022-10-24T14:29:32.414Z,99547.00
2022-10-24T14:34:33.897Z,99551.41
2022-10-24T14:39:33.342Z,99563.16
2022-10-24T14:44:29.927Z,99561.31
2022-10-24T14:49:26.192Z,99566.00
2022-10-24T14:54:26.726Z,99573.06
2022-10-24T14:59:35.068Z,99568.53
2022-10-24T15:04:38.250Z,99564.59
2022-10-24T15:09:34.545Z,99570.13
2022-10-24T15:14:38.961Z,99576.03
2022-10-24T15:19:38.583Z,99579.00
2022-10-24T15:24:35.052Z,99581.09
2022-10-24T15:29:31.779Z,99587.56
2022-10-24T15:34:29.837Z,99582.53
2022-10-24T15:39:26.249Z,99580.75
2022-10-24T15:44:26.533Z,99573.88
2022-10-24T15:49:22.927Z,99583.59
2022-10-24T15:54:21.773Z,99582.47
2022-10-24T15:59:19.832Z,99598.63
2022-10-24T16:04:17.035Z,99593.81
2022-10-24T16:09:16.316Z,99585.47
2022-10-24T16:14:14.973Z,99579.13
2022-10-24T16:19:11.463Z,99589.31
2022-10-24T16:24:08.758Z,99594.31
2022-10-24T16:29:05.755Z,99604.34
2022-10-24T16:34:02.736Z,99606.00
2022-10-24T16:38:59.053Z,99612.53
2022-10-24T16:43:57.273Z,99616.34
2022-10-24T16:48:54.303Z,99607.59
2022-10-24T16:53:50.757Z,99625.44
2022-10-24T16:58:47.084Z,99623.44
2022-10-24T17:03:45.003Z,99622.69
2022-10-24T17:08:41.378Z,99620.34
2022-10-24T17:13:37.791Z,99617.59
2022-10-24T17:18:35.467Z,99621.97
2022-10-24T17:23:32.300Z,99641.72
2022-10-24T17:28:33.087Z,99649.69
2022-10-24T17:33:29.966Z,99649.03
2022-10-24T17:38:55.403Z,99643.34
2022-10-24T17:43:53.386Z,99651.50
2022-10-24T17:48:50.547Z,99647.00
2022-10-24T17:53:46.900Z,99646.94
2022-10-24T17:58:43.578Z,99652.47
2022-10-24T18:03:39.886Z,99648.38
2022-10-24T18:08:36.254Z,99651.25
2022-10-24T18:13:35.589Z,99654.28
2022-10-24T18:18:31.873Z,99655.34
2022-10-24T18:23:28.188Z,99669.16
2022-10-24T18:28:24.652Z,99672.97
2022-10-24T18:33:20.937Z,99671.69
2022-10-24T18:38:18.851Z,99675.72
2022-10-24T18:43:16.093Z,99675.78
2022-10-24T18:48:12.914Z,99680.75
2022-10-24T18:53:22.451Z,99687.38
2022-10-24T18:58:20.201Z,99698.97
2022-10-24T19:03:33.554Z,99704.56
2022-10-24T19:08:30.070Z,99699.25
2022-10-24T19:13:27.132Z,99710.81
2022-10-24T19:18:25.019Z,99704.56
2022-10-24T19:23:21.624Z,99704.84
2022-10-24T19:28:19.603Z,99720.59
2022-10-24T19:33:16.556Z,99723.28
2022-10-24T19:38:17.396Z,99721.13
2022-10-24T19:43:14.127Z,99723.09
2022-10-24T19:48:11.779Z,99730.28
2022-10-24T19:53:08.437Z,99734.69
2022-10-24T19:58:08.945Z,99731.56
2022-10-24T20:03:05.589Z,99726.22
2022-10-24T20:08:01.939Z,99736.63
2022-10-24T20:12:58.322Z,99731.56
2022-10-24T20:17:54.858Z,99723.53
2022-10-24T20:22:51.361Z,99743.53
2022-10-24T20:27:48.231Z,99731.19
2022-10-24T20:32:44.683Z,99738.50
2022-10-24T20:37:41.648Z,99736.16
2022-10-24T20:42:38.315Z,99728.47
2022-10-24T20:47:34.618Z,99738.53
2022-10-24T20:52:30.922Z,99743.03
2022-10-24T20:57:27.278Z,99749.81
2022-10-24T21:02:23.726Z,99754.63
2022-10-24T21:07:20.111Z,99748.28
2022-10-24T21:12:16.438Z,99758.88
2022-10-24T21:17:13.019Z,99756.63
2022-10-24T21:22:09.404Z,99760.09
2022-10-24T21:27:05.792Z,99762.84
2022-10-24T21:32:02.167Z,99771.84
2022-10-24T21:36:58.642Z,99784.03
2022-10-24T21:41:54.986Z,99792.75
2022-10-24T21:46:51.875Z,99805.28
2022-10-24T21:51:48.546Z,99807.94
2022-10-24T21:56:45.462Z,99819.78
2022-10-24T22:01:43.696Z,99812.88
2022-10-24T22:06:40.750Z,99812.19
2022-10-24T22:11:37.185Z,99820.09
2022-10-24T22:16:34.258Z,99825.69
2022-10-24T22:21:33.593Z,99832.94
2022-10-24T22:26:30.997Z,99827.91
2022-10-24T22:31:29.087Z,99824.56
2022-10-24T22:36:40.310Z,99832.16
2022-10-24T22:41:36.862Z,99830.19
2022-10-24T22:47:07.087Z,99833.25
2022-10-24T22:52:03.845Z,99826.38
2022-10-24T22:57:00.689Z,99832.94
2022-10-24T23:02:04.941Z,99837.31
2022-10-24T23:07:27.426Z,99833.06
2022-10-24T23:12:24.686Z,99841.06
2022-10-24T23:17:26.768Z,99850.91
2022-10-24T23:22:27.335Z,99850.88
2022-10-24T23:27:34.340Z,99853.41
2022-10-24T23:32:33.109Z,99854.09
2022-10-24T23:37:42.318Z,99854.78
2022-10-24T23:42:38.860Z,99863.91
2022-10-24T23:47:56.302Z,99867.88
2022-10-24T23:53:18.453Z,99872.91
2022-10-24T23:58:14.869Z,99876.97
